createdAt,value
2019-04-05T00:01:44.882Z,69.50
2019-04-05T00:04:27.335Z,69.50
2019-04-05T00:07:03.384Z,69.50
2019-04-05T00:09:52.945Z,69.70
2019-04-05T00:12:35.669Z,69.70
2019-04-05T00:15:15.945Z,69.50
2019-04-05T00:17:51.693Z,69.50
2019-04-05T00:20:34.343Z,69.40
2019-04-05T00:23:23.208Z,69.40
2019-04-05T00:26:06.038Z,69.50
2019-04-05T00:28:41.656Z,69.40
2019-04-05T00:31:24.314Z,69.20
2019-04-05T00:34:00.686Z,69.20
2019-04-05T00:36:43.535Z,69.20
2019-04-05T00:39:26.350Z,69.40
2019-04-05T00:42:08.601Z,69.30
2019-04-05T00:44:44.317Z,69.20
2019-04-05T00:47:20.174Z,69.30
2019-04-05T00:50:02.698Z,69.30
2019-04-05T00:52:38.465Z,69.30
2019-04-05T00:55:21.973Z,69.40
2019-04-05T00:57:57.649Z,69.60
2019-04-05T01:00:40.229Z,69.70
2019-04-05T01:03:22.318Z,69.70
2019-04-05T01:05:58.183Z,69.60
2019-04-05T01:08:41.510Z,69.60
2019-04-05T01:11:24.273Z,69.60
2019-04-05T01:14:13.225Z,69.60
2019-04-05T01:16:56.009Z,69.60
2019-04-05T01:19:36.619Z,69.70
2019-04-05T01:22:23.050Z,69.60
2019-04-05T01:25:05.650Z,69.70
2019-04-05T01:27:42.414Z,69.80
2019-04-05T01:30:29.802Z,70.00
2019-04-05T01:33:12.475Z,70.00
2019-04-05T01:35:48.614Z,70.00
2019-04-05T01:38:31.033Z,70.00
2019-04-05T01:41:08.153Z,70.00
2019-04-05T01:43:44.835Z,70.00
2019-04-05T01:46:27.811Z,69.90
2019-04-05T01:49:03.530Z,70.10
2019-04-05T01:51:46.665Z,70.10
2019-04-05T01:54:29.275Z,70.20
2019-04-05T01:57:05.364Z,70.20
2019-04-05T01:59:41.854Z,70.10
2019-04-05T02:02:25.068Z,70.30
2019-04-05T02:05:07.010Z,70.40
2019-04-05T02:07:43.405Z,70.40
2019-04-05T02:10:27.085Z,70.60
2019-04-05T02:13:03.143Z,70.70
2019-04-05T02:15:45.910Z,70.70
2019-04-05T02:18:28.517Z,70.90
2019-04-05T02:21:04.885Z,71.20
2019-04-05T02:23:47.250Z,71.40
2019-04-05T02:26:36.516Z,71.60
2019-04-05T02:29:18.708Z,71.80
2019-04-05T02:31:55.291Z,71.90
2019-04-05T02:34:37.997Z,72.20
2019-04-05T02:37:20.755Z,72.30
2019-04-05T02:40:03.437Z,72.50
2019-04-05T02:42:41.694Z,72.50
2019-04-05T02:45:26.787Z,72.70
2019-04-05T02:48:20.361Z,72.50
2019-04-05T02:51:00.905Z,72.50
2019-04-05T02:53:46.899Z,72.50
2019-04-05T02:56:31.470Z,72.50
2019-04-05T02:59:14.833Z,72.30
2019-04-05T03:01:51.372Z,72.30
2019-04-05T03:04:34.630Z,72.40
2019-04-05T03:07:24.482Z,72.30
2019-04-05T03:10:00.655Z,73.20
2019-04-05T03:12:43.694Z,73.20
2019-04-05T03:15:25.795Z,73.10
2019-04-05T03:18:02.396Z,72.90
2019-04-05T03:20:45.378Z,72.80
2019-04-05T03:23:28.424Z,72.70
2019-04-05T03:26:13.593Z,72.90
2019-04-05T03:29:00.716Z,73.00
2019-04-05T03:31:43.765Z,73.00
2019-04-05T03:34:27.663Z,73.00
2019-04-05T03:37:03.806Z,73.00
2019-04-05T03:39:40.903Z,73.40
2019-04-05T03:42:23.532Z,73.60
2019-04-05T03:45:07.176Z,74.10
2019-04-05T03:47:50.065Z,74.00
2019-04-05T03:50:26.513Z,74.20
2019-04-05T03:53:09.070Z,74.10
2019-04-05T03:55:58.924Z,74.50
2019-04-05T03:58:41.999Z,74.40
2019-04-05T04:01:18.179Z,74.70
2019-04-05T04:04:00.791Z,75.10
2019-04-05T04:06:36.868Z,75.10
2019-04-05T04:09:19.560Z,75.20
2019-04-05T04:11:55.482Z,75.10
2019-04-05T04:14:38.320Z,75.40
2019-04-05T04:17:15.053Z,75.50
2019-04-05T04:19:59.304Z,75.60
2019-04-05T04:22:42.791Z,75.50
2019-04-05T04:25:18.564Z,75.40
2019-04-05T04:28:00.967Z,75.60
2019-04-05T04:30:44.264Z,75.60
2019-04-05T04:33:27.907Z,76.10
2019-04-05T04:36:13.026Z,75.70
2019-04-05T04:38:49.606Z,75.70
2019-04-05T04:41:32.325Z,76.20
2019-04-05T04:44:15.651Z,76.20
2019-04-05T04:46:57.848Z,76.20
2019-04-05T04:49:34.457Z,76.00
2019-04-05T04:52:17.529Z,76.10
2019-04-05T04:54:53.874Z,75.90
2019-04-05T04:57:38.139Z,75.80
2019-04-05T05:00:14.463Z,75.70
2019-04-05T05:02:58.391Z,75.50
2019-04-05T05:05:34.811Z,75.30
2019-04-05T05:08:18.557Z,75.20
2019-04-05T05:10:53.821Z,75.00
2019-04-05T05:13:36.712Z,75.00
2019-04-05T05:16:13.643Z,74.80
2019-04-05T05:18:56.144Z,75.30
2019-04-05T05:21:39.065Z,74.60
2019-04-05T05:24:15.751Z,74.30
2019-04-05T05:26:58.463Z,74.30
2019-04-05T05:29:41.509Z,74.20
2019-04-05T05:32:24.045Z,73.80
2019-04-05T05:35:02.336Z,73.50
2019-04-05T05:37:45.962Z,73.30
2019-04-05T05:40:35.150Z,73.00
2019-04-05T05:43:07.876Z,72.60
2019-04-05T05:45:50.669Z,72.90
2019-04-05T05:48:32.806Z,74.00
2019-04-05T05:51:09.149Z,73.00
2019-04-05T05:53:45.084Z,72.60
2019-04-05T05:56:27.960Z,72.00
2019-04-05T05:59:03.851Z,71.90
2019-04-05T06:01:47.102Z,71.80
2019-04-05T06:04:36.684Z,71.50
2019-04-05T06:07:20.213Z,70.90
2019-04-05T06:09:56.308Z,71.30
2019-04-05T06:12:39.429Z,71.10
2019-04-05T06:15:15.539Z,70.80
2019-04-05T06:18:04.648Z,70.00
2019-04-05T06:20:35.752Z,70.40
2019-04-05T06:23:18.698Z,71.00
2019-04-05T06:25:55.129Z,69.70
2019-04-05T06:28:38.340Z,69.90
2019-04-05T06:31:15.015Z,69.80
2019-04-05T06:33:57.598Z,69.50
2019-04-05T06:36:33.485Z,70.20
2019-04-05T06:39:16.522Z,70.40
2019-04-05T06:41:58.945Z,69.90
2019-04-05T06:44:48.307Z,67.60
2019-04-05T06:47:24.293Z,67.60
2019-04-05T06:50:07.388Z,66.90
2019-04-05T06:52:50.592Z,66.30
2019-04-05T06:55:27.160Z,65.90
2019-04-05T06:58:10.448Z,66.00
2019-04-05T07:00:57.085Z,66.00
2019-04-05T07:03:30.835Z,65.00
2019-04-05T07:06:06.669Z,64.40
2019-04-05T07:08:54.109Z,64.90
2019-04-05T07:11:27.918Z,64.20
2019-04-05T07:14:10.598Z,63.10
2019-04-05T07:16:54.278Z,63.20
2019-04-05T07:19:30.035Z,62.60
2019-04-05T07:22:13.094Z,63.60
2019-04-05T07:24:49.686Z,62.00
2019-04-05T07:27:31.954Z,62.00
2019-04-05T07:30:08.308Z,62.50
2019-04-05T07:32:51.147Z,63.20
2019-04-05T07:35:34.267Z,61.50
2019-04-05T07:38:23.285Z,63.10
2019-04-05T07:40:58.980Z,62.10
2019-04-05T07:43:41.659Z,62.00
2019-04-05T07:46:17.415Z,60.90
2019-04-05T07:49:00.173Z,59.70
2019-04-05T07:51:42.400Z,60.00
2019-04-05T07:54:18.424Z,60.90
2019-04-05T07:57:00.983Z,59.00
2019-04-05T07:59:36.815Z,59.40
2019-04-05T08:02:19.450Z,60.70
2019-04-05T08:05:02.362Z,59.40
2019-04-05T08:07:56.520Z,59.10
2019-04-05T08:10:32.415Z,58.50
2019-04-05T08:13:17.076Z,58.40
2019-04-05T08:16:06.328Z,59.20
2019-04-05T08:18:42.128Z,58.50
2019-04-05T08:21:18.080Z,58.50
2019-04-05T08:23:54.180Z,59.40
2019-04-05T08:26:36.826Z,58.20
2019-04-05T08:29:12.908Z,58.10
2019-04-05T08:31:55.671Z,57.40
2019-04-05T08:34:38.811Z,57.40
2019-04-05T08:37:27.641Z,57.40
2019-04-05T08:40:10.783Z,57.20
2019-04-05T08:42:47.146Z,56.60
2019-04-05T08:45:29.857Z,57.90
2019-04-05T08:48:13.182Z,56.60
2019-04-05T08:50:55.333Z,56.90
2019-04-05T08:53:31.859Z,56.60
2019-04-05T08:56:14.123Z,56.40
2019-04-05T08:58:57.319Z,56.00
2019-04-05T09:01:39.609Z,55.90
2019-04-05T09:04:15.770Z,57.00
2019-04-05T09:06:58.261Z,56.60
2019-04-05T09:09:34.138Z,55.90
2019-04-05T09:12:16.857Z,55.60
2019-04-05T09:14:59.512Z,55.10
2019-04-05T09:17:57.066Z,55.30
2019-04-05T09:20:39.937Z,54.90
2019-04-05T09:23:16.482Z,54.90
2019-04-05T09:25:52.269Z,56.20
2019-04-05T09:28:35.154Z,55.80
2019-04-05T09:31:10.938Z,54.10
2019-04-05T09:33:54.127Z,54.50
2019-04-05T09:36:30.682Z,54.60
2019-04-05T09:39:16.029Z,55.70
2019-04-05T09:42:05.750Z,54.60
2019-04-05T09:44:42.054Z,54.10
2019-04-05T09:47:18.084Z,55.60
2019-04-05T09:50:00.801Z,54.00
2019-04-05T09:52:43.198Z,55.20
2019-04-05T09:55:25.827Z,53.60
2019-04-05T09:58:14.990Z,54.10
2019-04-05T10:00:57.845Z,53.60
2019-04-05T10:03:34.406Z,53.80
2019-04-05T10:06:17.121Z,53.70
2019-04-05T10:09:00.314Z,54.30
2019-04-05T10:11:43.205Z,54.20
2019-04-05T10:14:19.294Z,53.60
2019-04-05T10:16:55.524Z,54.30
2019-04-05T10:19:49.331Z,54.10
2019-04-05T10:22:16.279Z,53.70
2019-04-05T10:24:58.883Z,53.60
2019-04-05T10:27:41.940Z,54.20
2019-04-05T10:30:18.620Z,53.10
2019-04-05T10:33:01.124Z,53.90
2019-04-05T10:35:44.659Z,53.70
2019-04-05T10:38:20.460Z,53.80
2019-04-05T10:41:02.801Z,54.10
2019-04-05T10:43:39.651Z,52.70
2019-04-05T10:46:22.154Z,54.40
2019-04-05T10:49:04.875Z,53.60
2019-04-05T10:51:47.207Z,52.70
2019-04-05T10:54:23.513Z,54.00
2019-04-05T10:56:59.606Z,53.70
2019-04-05T10:59:41.871Z,53.70
2019-04-05T11:02:24.050Z,53.00
2019-04-05T11:05:00.444Z,53.10
2019-04-05T11:07:43.375Z,53.20
2019-04-05T11:10:20.471Z,53.40
2019-04-05T11:13:03.720Z,53.60
2019-04-05T11:15:39.588Z,53.50
2019-04-05T11:18:21.825Z,53.30
2019-04-05T11:21:04.872Z,54.40
2019-04-05T11:23:48.084Z,53.90
2019-04-05T11:26:24.212Z,53.30
2019-04-05T11:29:06.391Z,53.10
2019-04-05T11:31:56.762Z,52.40
2019-04-05T11:34:33.509Z,53.20
2019-04-05T11:37:09.722Z,52.60
2019-04-05T11:39:48.427Z,52.40
2019-04-05T11:42:33.535Z,52.90
2019-04-05T11:45:18.861Z,52.70
2019-04-05T11:47:55.663Z,53.70
2019-04-05T11:50:39.854Z,53.50
2019-04-05T11:53:22.750Z,52.90
2019-04-05T11:56:14.914Z,51.60
2019-04-05T11:58:51.115Z,52.60
2019-04-05T12:01:35.673Z,51.50
2019-04-05T12:04:18.435Z,53.50
2019-04-05T12:06:54.858Z,52.40
2019-04-05T12:09:38.387Z,51.70
2019-04-05T12:12:20.721Z,52.10
2019-04-05T12:15:10.151Z,53.20
2019-04-05T12:17:46.004Z,52.20
2019-04-05T12:20:30.784Z,51.70
2019-04-05T12:23:07.599Z,51.60
2019-04-05T12:25:50.904Z,52.30
2019-04-05T12:28:40.562Z,51.90
2019-04-05T12:31:23.458Z,51.60
2019-04-05T12:33:59.861Z,51.30
2019-04-05T12:36:42.566Z,51.80
2019-04-05T12:39:28.162Z,50.20
2019-04-05T12:42:12.236Z,50.90
2019-04-05T12:44:48.628Z,51.70
2019-04-05T12:47:33.864Z,51.00
2019-04-05T12:50:15.948Z,50.80
2019-04-05T12:52:59.107Z,50.60
2019-04-05T12:55:34.889Z,51.80
2019-04-05T12:58:10.605Z,50.90
2019-04-05T13:00:53.695Z,50.50
2019-04-05T13:03:37.336Z,50.10
2019-04-05T13:06:13.951Z,51.20
2019-04-05T13:08:56.821Z,50.20
2019-04-05T13:11:33.178Z,50.60
2019-04-05T13:14:15.607Z,49.60
2019-04-05T13:16:51.974Z,50.20
2019-04-05T13:19:28.510Z,50.90
2019-04-05T13:22:05.776Z,51.70
2019-04-05T13:24:48.712Z,51.50
2019-04-05T13:27:41.268Z,51.00
2019-04-05T13:30:22.961Z,50.70
2019-04-05T13:32:59.553Z,50.50
2019-04-05T13:35:42.099Z,50.10
2019-04-05T13:38:18.906Z,51.00
2019-04-05T13:41:02.067Z,50.50
2019-04-05T13:43:38.113Z,50.00
2019-04-05T13:46:22.750Z,50.00
2019-04-05T13:49:04.667Z,50.20
2019-04-05T13:51:42.098Z,50.70
2019-04-05T13:54:18.888Z,50.10
2019-04-05T13:57:01.791Z,50.90
2019-04-05T13:59:38.281Z,50.40
2019-04-05T14:02:21.688Z,51.00
2019-04-05T14:05:11.020Z,51.10
2019-04-05T14:08:09.043Z,50.20
2019-04-05T14:10:31.999Z,51.00
2019-04-05T14:13:14.569Z,50.90
2019-04-05T14:15:57.188Z,51.20
2019-04-05T14:18:39.454Z,51.80
2019-04-05T14:21:16.025Z,51.70
2019-04-05T14:23:58.497Z,50.70
2019-04-05T14:26:43.512Z,50.50
2019-04-05T14:29:33.421Z,51.40
2019-04-05T14:32:21.079Z,51.20
2019-04-05T14:34:54.763Z,50.00
2019-04-05T14:37:37.667Z,51.10
2019-04-05T14:40:18.182Z,51.60
2019-04-05T14:43:01.083Z,50.40
2019-04-05T14:45:37.589Z,50.70
2019-04-05T14:48:20.683Z,50.90
2019-04-05T14:50:58.472Z,51.30
2019-04-05T14:53:41.809Z,50.10
2019-04-05T14:56:26.813Z,51.40
2019-04-05T14:59:05.679Z,51.50
2019-04-05T15:01:48.059Z,51.30
2019-04-05T15:04:30.851Z,51.70
2019-04-05T15:07:13.350Z,53.60
2019-04-05T15:09:55.780Z,52.70
2019-04-05T15:12:31.896Z,52.10
2019-04-05T15:15:14.797Z,52.60
2019-04-05T15:17:50.761Z,52.80
2019-04-05T15:20:34.894Z,52.60
2019-04-05T15:23:13.812Z,53.10
2019-04-05T15:25:55.670Z,53.30
2019-04-05T15:28:31.567Z,53.00
2019-04-05T15:31:14.234Z,53.60
2019-04-05T15:33:57.796Z,54.10
2019-04-05T15:36:34.724Z,53.40
2019-04-05T15:39:20.634Z,53.20
2019-04-05T15:41:56.734Z,54.30
2019-04-05T15:44:39.794Z,53.80
2019-04-05T15:47:31.821Z,53.30
2019-04-05T15:50:15.409Z,53.60
2019-04-05T15:53:04.558Z,53.70
2019-04-05T15:55:46.864Z,53.30
2019-04-05T15:58:23.082Z,54.30
2019-04-05T16:01:05.336Z,55.20
2019-04-05T16:03:42.009Z,54.60
2019-04-05T16:06:24.934Z,53.70
2019-04-05T16:09:01.002Z,53.70
2019-04-05T16:11:42.734Z,55.30
2019-04-05T16:14:25.779Z,56.10
2019-04-05T16:17:14.792Z,55.60
2019-04-05T16:19:57.842Z,55.70
2019-04-05T16:22:35.924Z,56.00
2019-04-05T16:25:18.787Z,55.70
2019-04-05T16:27:54.992Z,56.30
2019-04-05T16:30:39.634Z,56.60
2019-04-05T16:33:15.048Z,57.00
2019-04-05T16:35:57.739Z,57.40
2019-04-05T16:38:33.575Z,57.00
2019-04-05T16:41:17.329Z,57.20
2019-04-05T16:43:59.911Z,57.20
2019-04-05T16:46:42.251Z,57.50
2019-04-05T16:49:18.821Z,57.80
2019-04-05T16:52:00.967Z,58.10
2019-04-05T16:54:36.951Z,58.60
2019-04-05T16:57:13.207Z,59.00
2019-04-05T16:59:56.444Z,58.90
2019-04-05T17:02:32.265Z,59.10
2019-04-05T17:05:08.181Z,59.50
2019-04-05T17:07:44.051Z,59.80
2019-04-05T17:10:25.896Z,60.00
2019-04-05T17:13:03.034Z,60.20
2019-04-05T17:15:46.263Z,60.10
2019-04-05T17:18:22.982Z,60.20
2019-04-05T17:21:05.716Z,60.70
2019-04-05T17:23:41.755Z,60.70
2019-04-05T17:26:24.938Z,60.90
2019-04-05T17:29:01.329Z,60.90
2019-04-05T17:31:44.007Z,61.10
2019-04-05T17:34:19.589Z,61.30
2019-04-05T17:37:02.143Z,61.50
2019-04-05T17:39:37.968Z,61.40
2019-04-05T17:42:21.031Z,61.70
2019-04-05T17:44:56.600Z,61.80
2019-04-05T17:47:39.531Z,61.90
2019-04-05T17:50:16.421Z,62.10
2019-04-05T17:53:11.259Z,62.40
2019-04-05T17:55:43.103Z,62.80
2019-04-05T17:58:26.128Z,62.90
2019-04-05T18:01:08.662Z,62.90
2019-04-05T18:03:44.714Z,63.10
2019-04-05T18:06:27.458Z,63.50
2019-04-05T18:09:11.048Z,63.80
2019-04-05T18:11:54.202Z,63.80
2019-04-05T18:14:37.229Z,64.10
2019-04-05T18:17:13.902Z,64.40
2019-04-05T18:19:49.931Z,64.20
2019-04-05T18:22:32.648Z,64.50
2019-04-05T18:25:08.806Z,64.80
2019-04-05T18:27:51.250Z,65.20
2019-04-05T18:30:27.854Z,65.70
2019-04-05T18:33:11.138Z,66.10
2019-04-05T18:35:53.304Z,66.20
2019-04-05T18:38:30.029Z,66.60
2019-04-05T18:41:12.736Z,66.60
2019-04-05T18:43:48.461Z,66.90
2019-04-05T18:46:30.384Z,67.00
2019-04-05T18:49:06.636Z,66.90
2019-04-05T18:51:49.123Z,67.20
2019-04-05T18:54:25.660Z,67.50
2019-04-05T18:57:08.754Z,67.60
2019-04-05T18:59:44.759Z,68.00
2019-04-05T19:02:27.720Z,68.30
2019-04-05T19:05:04.188Z,68.30
2019-04-05T19:07:46.859Z,68.30
2019-04-05T19:10:36.978Z,68.50
2019-04-05T19:13:08.165Z,68.50
2019-04-05T19:15:51.429Z,68.60
2019-04-05T19:18:27.894Z,68.70
2019-04-05T19:21:10.718Z,68.70
2019-04-05T19:24:00.024Z,68.80
2019-04-05T19:26:42.274Z,68.60
2019-04-05T19:29:18.471Z,68.90
2019-04-05T19:50:47.047Z,69.90
2019-04-05T19:53:29.072Z,70.10
2019-04-05T19:56:12.346Z,70.10
2019-04-05T19:58:48.179Z,70.20
2019-04-05T20:01:31.403Z,70.30
2019-04-05T20:04:07.220Z,70.20
2019-04-05T20:06:58.050Z,70.40
2019-04-05T20:09:35.004Z,70.50
2019-04-05T20:12:11.709Z,70.50
2019-04-05T20:14:47.486Z,70.70
2019-04-05T20:17:30.019Z,70.80
2019-04-05T20:20:14.971Z,70.90
2019-04-05T20:22:58.143Z,71.10
2019-04-05T20:25:34.791Z,71.20
2019-04-05T20:28:16.989Z,71.30
2019-04-05T20:30:52.735Z,71.40
2019-04-05T20:33:35.437Z,71.50
2019-04-05T20:36:24.628Z,71.60
2019-04-05T20:39:06.683Z,71.80
2019-04-05T20:41:43.342Z,71.60
2019-04-05T20:44:26.359Z,71.70
2019-04-05T20:47:02.216Z,71.60
2019-04-05T20:49:44.899Z,71.50
2019-04-05T20:52:27.796Z,71.40
2019-04-05T20:55:15.166Z,71.40
2019-04-05T20:57:51.640Z,71.30
2019-04-05T21:00:27.346Z,71.50
2019-04-05T21:03:09.782Z,71.40
2019-04-05T21:05:52.366Z,71.20
2019-04-05T21:08:28.152Z,71.30
2019-04-05T21:11:10.528Z,71.30
2019-04-05T21:13:46.536Z,71.40
2019-04-05T21:16:29.779Z,71.70
2019-04-05T21:19:06.338Z,71.80
2019-04-05T21:21:49.418Z,72.00
2019-04-05T21:24:35.531Z,72.20
2019-04-05T21:27:09.331Z,73.00
2019-04-05T21:29:45.636Z,72.50
2019-04-05T21:32:27.749Z,72.60
2019-04-05T21:35:04.460Z,72.70
2019-04-05T21:37:47.287Z,72.80
2019-04-05T21:40:23.917Z,72.90
2019-04-05T21:43:06.474Z,73.20
2019-04-05T21:45:49.313Z,73.20
2019-04-05T21:48:38.557Z,73.30
2019-04-05T21:51:20.969Z,73.50
2019-04-05T21:53:56.638Z,73.60
2019-04-05T21:56:39.409Z,73.60
2019-04-05T21:59:15.576Z,73.60
2019-04-05T22:01:58.598Z,73.50
2019-04-05T22:04:34.320Z,73.50
2019-04-05T22:07:16.489Z,73.40
2019-04-05T22:09:52.450Z,73.40
2019-04-05T22:12:35.325Z,73.30
2019-04-05T22:15:12.035Z,73.30
2019-04-05T22:17:53.897Z,73.20
2019-04-05T22:20:29.771Z,73.20
2019-04-05T22:23:12.652Z,73.30
2019-04-05T22:25:48.763Z,73.30
2019-04-05T22:28:31.886Z,73.30
2019-04-05T22:31:14.067Z,73.30
2019-04-05T22:34:02.744Z,73.20
2019-04-05T22:36:45.375Z,73.20
2019-04-05T22:39:21.800Z,73.30
2019-04-05T22:42:04.801Z,73.60
2019-04-05T22:44:41.713Z,73.40
2019-04-05T22:47:24.413Z,73.50
2019-04-05T22:50:06.975Z,73.50
2019-04-05T22:52:48.993Z,73.50
2019-04-05T22:55:25.433Z,73.70
2019-04-05T22:58:08.051Z,73.80
2019-04-05T23:00:50.789Z,73.80
2019-04-05T23:03:27.254Z,74.00
2019-04-05T23:06:09.851Z,74.10
2019-04-05T23:08:51.498Z,74.40
2019-04-05T23:11:27.822Z,74.40
2019-04-05T23:14:11.136Z,75.20
2019-04-05T23:16:47.546Z,74.40
2019-04-05T23:19:30.096Z,74.50
2019-04-05T23:22:05.708Z,74.50
2019-04-05T23:24:48.969Z,74.60
2019-04-05T23:27:24.924Z,74.70
2019-04-05T23:30:07.847Z,74.70
2019-04-05T23:32:50.989Z,74.70
2019-04-05T23:35:26.644Z,74.70
2019-04-05T23:38:09.190Z,74.90
2019-04-05T23:40:44.975Z,75.00
2019-04-05T23:43:28.248Z,75.20
2019-04-05T23:46:11.058Z,75.30
2019-04-05T23:48:53.664Z,75.40
2019-04-05T23:51:29.356Z,75.50
2019-04-05T23:54:11.858Z,75.60
2019-04-05T23:56:54.366Z,75.60
2019-04-05T23:59:37.665Z,75.70
